sensor_id;sensor_type;location;lat;lon;timestamp;P1;durP1;ratioP1;P2;durP2;ratioP2
23088;SDS011;11713;48.506;8.966;2023-04-06T00:01:55;14.80;;;10.10;;
23088;SDS011;11713;48.506;8.966;2023-04-06T00:04:20;11.87;;;9.10;;
23088;SDS011;11713;48.506;8.966;2023-04-06T00:06:46;13.13;;;9.93;;
23088;SDS011;11713;48.506;8.966;2023-04-06T00:09:12;13.07;;;9.50;;
23088;SDS011;11713;48.506;8.966;2023-04-06T00:11:37;12.47;;;9.60;;
23088;SDS011;11713;48.506;8.966;2023-04-06T00:14:03;13.80;;;10.00;;
23088;SDS011;11713;48.506;8.966;2023-04-06T00:16:29;14.93;;;10.60;;
23088;SDS011;11713;48.506;8.966;2023-04-06T00:18:55;13.83;;;10.20;;
23088;SDS011;11713;48.506;8.966;2023-04-06T00:21:21;16.93;;;9.83;;
23088;SDS011;11713;48.506;8.966;2023-04-06T00:23:46;17.40;;;9.80;;
23088;SDS011;11713;48.506;8.966;2023-04-06T00:26:12;13.03;;;9.90;;
23088;SDS011;11713;48.506;8.966;2023-04-06T00:28:43;11.73;;;9.47;;
23088;SDS011;11713;48.506;8.966;2023-04-06T00:31:09;13.87;;;9.70;;
23088;SDS011;11713;48.506;8.966;2023-04-06T00:33:35;12.63;;;9.37;;
23088;SDS011;11713;48.506;8.966;2023-04-06T00:36:01;12.33;;;9.27;;
23088;SDS011;11713;48.506;8.966;2023-04-06T00:38:26;14.33;;;10.27;;
23088;SDS011;11713;48.506;8.966;2023-04-06T00:40:52;13.53;;;10.40;;
23088;SDS011;11713;48.506;8.966;2023-04-06T00:43:18;17.60;;;10.13;;
23088;SDS011;11713;48.506;8.966;2023-04-06T00:45:44;13.43;;;9.60;;
23088;SDS011;11713;48.506;8.966;2023-04-06T00:48:09;13.10;;;9.23;;
23088;SDS011;11713;48.506;8.966;2023-04-06T00:50:35;12.97;;;9.50;;
23088;SDS011;11713;48.506;8.966;2023-04-06T00:53:01;11.57;;;8.67;;
23088;SDS011;11713;48.506;8.966;2023-04-06T00:55:28;12.93;;;9.50;;
23088;SDS011;11713;48.506;8.966;2023-04-06T00:57:59;12.20;;;9.93;;
23088;SDS011;11713;48.506;8.966;2023-04-06T01:00:33;16.20;;;10.37;;
23088;SDS011;11713;48.506;8.966;2023-04-06T01:03:01;13.70;;;10.07;;
23088;SDS011;11713;48.506;8.966;2023-04-06T01:05:35;13.80;;;9.20;;
23088;SDS011;11713;48.506;8.966;2023-04-06T01:08:07;15.53;;;9.67;;
23088;SDS011;11713;48.506;8.966;2023-04-06T01:10:32;13.30;;;9.87;;
23088;SDS011;11713;48.506;8.966;2023-04-06T01:13:15;21.80;;;10.33;;
23088;SDS011;11713;48.506;8.966;2023-04-06T01:15:46;17.07;;;10.40;;
23088;SDS011;11713;48.506;8.966;2023-04-06T01:18:19;15.40;;;9.77;;
23088;SDS011;11713;48.506;8.966;2023-04-06T01:21:08;12.60;;;9.77;;
23088;SDS011;11713;48.506;8.966;2023-04-06T01:23:45;13.93;;;10.10;;
23088;SDS011;11713;48.506;8.966;2023-04-06T01:26:14;14.40;;;9.93;;
23088;SDS011;11713;48.506;8.966;2023-04-06T01:28:41;13.83;;;10.30;;
23088;SDS011;11713;48.506;8.966;2023-04-06T01:31:27;17.03;;;9.77;;
23088;SDS011;11713;48.506;8.966;2023-04-06T01:33:53;12.90;;;10.10;;
23088;SDS011;11713;48.506;8.966;2023-04-06T01:36:22;14.20;;;10.53;;
23088;SDS011;11713;48.506;8.966;2023-04-06T01:38:56;13.60;;;10.17;;
23088;SDS011;11713;48.506;8.966;2023-04-06T01:41:30;12.90;;;9.90;;
23088;SDS011;11713;48.506;8.966;2023-04-06T01:43:56;13.53;;;9.33;;
23088;SDS011;11713;48.506;8.966;2023-04-06T01:46:25;13.43;;;9.93;;
23088;SDS011;11713;48.506;8.966;2023-04-06T01:48:52;15.37;;;10.23;;
23088;SDS011;11713;48.506;8.966;2023-04-06T01:51:39;14.77;;;10.37;;
23088;SDS011;11713;48.506;8.966;2023-04-06T01:54:08;16.00;;;10.10;;
23088;SDS011;11713;48.506;8.966;2023-04-06T01:56:54;13.77;;;9.87;;
23088;SDS011;11713;48.506;8.966;2023-04-06T01:59:42;13.90;;;10.40;;
23088;SDS011;11713;48.506;8.966;2023-04-06T02:02:28;12.63;;;9.47;;
23088;SDS011;11713;48.506;8.966;2023-04-06T02:04:59;12.83;;;9.23;;
23088;SDS011;11713;48.506;8.966;2023-04-06T02:07:26;15.37;;;9.90;;
23088;SDS011;11713;48.506;8.966;2023-04-06T02:09:53;14.47;;;9.73;;
23088;SDS011;11713;48.506;8.966;2023-04-06T02:12:25;14.20;;;9.90;;
23088;SDS011;11713;48.506;8.966;2023-04-06T02:14:51;17.70;;;9.87;;
23088;SDS011;11713;48.506;8.966;2023-04-06T02:17:17;14.30;;;9.47;;
23088;SDS011;11713;48.506;8.966;2023-04-06T02:19:43;13.23;;;9.23;;
23088;SDS011;11713;48.506;8.966;2023-04-06T02:22:09;12.57;;;9.43;;
23088;SDS011;11713;48.506;8.966;2023-04-06T02:24:34;13.67;;;9.67;;
23088;SDS011;11713;48.506;8.966;2023-04-06T02:27:00;13.13;;;9.53;;
23088;SDS011;11713;48.506;8.966;2023-04-06T02:29:26;13.10;;;9.10;;
23088;SDS011;11713;48.506;8.966;2023-04-06T02:31:52;12.80;;;9.77;;
23088;SDS011;11713;48.506;8.966;2023-04-06T02:34:19;17.50;;;9.73;;
23088;SDS011;11713;48.506;8.966;2023-04-06T02:36:49;11.43;;;9.13;;
23088;SDS011;11713;48.506;8.966;2023-04-06T02:39:14;12.83;;;9.50;;
23088;SDS011;11713;48.506;8.966;2023-04-06T02:41:41;12.73;;;9.13;;
23088;SDS011;11713;48.506;8.966;2023-04-06T02:44:07;12.90;;;9.67;;
23088;SDS011;11713;48.506;8.966;2023-04-06T02:46:40;12.40;;;9.33;;
23088;SDS011;11713;48.506;8.966;2023-04-06T02:49:07;12.37;;;8.83;;
23088;SDS011;11713;48.506;8.966;2023-04-06T02:51:34;12.13;;;9.20;;
23088;SDS011;11713;48.506;8.966;2023-04-06T02:54:32;11.30;;;9.00;;
23088;SDS011;11713;48.506;8.966;2023-04-06T02:56:59;13.53;;;8.97;;
23088;SDS011;11713;48.506;8.966;2023-04-06T02:59:34;11.20;;;8.70;;
23088;SDS011;11713;48.506;8.966;2023-04-06T03:02:07;13.50;;;9.83;;
23088;SDS011;11713;48.506;8.966;2023-04-06T03:04:34;14.07;;;8.67;;
23088;SDS011;11713;48.506;8.966;2023-04-06T03:07:02;12.80;;;9.00;;
23088;SDS011;11713;48.506;8.966;2023-04-06T03:09:36;10.47;;;8.33;;
23088;SDS011;11713;48.506;8.966;2023-04-06T03:12:02;12.63;;;8.90;;
23088;SDS011;11713;48.506;8.966;2023-04-06T03:14:33;10.40;;;8.40;;
23088;SDS011;11713;48.506;8.966;2023-04-06T03:16:58;12.43;;;9.00;;
23088;SDS011;11713;48.506;8.966;2023-04-06T03:19:25;11.77;;;8.70;;
23088;SDS011;11713;48.506;8.966;2023-04-06T03:21:52;10.87;;;8.80;;
23088;SDS011;11713;48.506;8.966;2023-04-06T03:24:19;13.23;;;8.53;;
23088;SDS011;11713;48.506;8.966;2023-04-06T03:26:45;11.27;;;8.90;;
23088;SDS011;11713;48.506;8.966;2023-04-06T03:29:11;11.80;;;8.47;;
23088;SDS011;11713;48.506;8.966;2023-04-06T03:31:37;13.30;;;8.07;;
23088;SDS011;11713;48.506;8.966;2023-04-06T03:34:22;12.90;;;8.53;;
23088;SDS011;11713;48.506;8.966;2023-04-06T03:36:48;13.43;;;8.87;;
23088;SDS011;11713;48.506;8.966;2023-04-06T03:39:13;11.63;;;8.27;;
23088;SDS011;11713;48.506;8.966;2023-04-06T03:41:41;11.63;;;8.53;;
23088;SDS011;11713;48.506;8.966;2023-04-06T03:44:26;12.97;;;8.60;;
23088;SDS011;11713;48.506;8.966;2023-04-06T03:46:52;11.17;;;8.50;;
23088;SDS011;11713;48.506;8.966;2023-04-06T03:49:19;12.03;;;8.20;;
23088;SDS011;11713;48.506;8.966;2023-04-06T03:51:48;11.33;;;7.97;;
23088;SDS011;11713;48.506;8.966;2023-04-06T03:54:14;14.03;;;8.73;;
23088;SDS011;11713;48.506;8.966;2023-04-06T03:56:41;12.63;;;8.30;;
23088;SDS011;11713;48.506;8.966;2023-04-06T03:59:07;10.87;;;7.40;;
23088;SDS011;11713;48.506;8.966;2023-04-06T04:01:33;9.90;;;7.70;;
23088;SDS011;11713;48.506;8.966;2023-04-06T04:03:58;14.17;;;8.70;;
23088;SDS011;11713;48.506;8.966;2023-04-06T04:06:24;12.20;;;8.00;;
23088;SDS011;11713;48.506;8.966;2023-04-06T04:08:50;10.50;;;7.83;;
23088;SDS011;11713;48.506;8.966;2023-04-06T04:11:16;10.53;;;7.57;;
23088;SDS011;11713;48.506;8.966;2023-04-06T04:13:43;11.00;;;8.13;;
23088;SDS011;11713;48.506;8.966;2023-04-06T04:16:09;12.90;;;7.90;;
23088;SDS011;11713;48.506;8.966;2023-04-06T04:18:34;11.87;;;7.70;;
23088;SDS011;11713;48.506;8.966;2023-04-06T04:21:01;11.00;;;8.43;;
23088;SDS011;11713;48.506;8.966;2023-04-06T04:23:27;11.90;;;8.00;;
23088;SDS011;11713;48.506;8.966;2023-04-06T04:25:53;11.30;;;7.97;;
23088;SDS011;11713;48.506;8.966;2023-04-06T04:28:19;13.13;;;8.23;;
23088;SDS011;11713;48.506;8.966;2023-04-06T04:30:45;13.57;;;8.90;;
23088;SDS011;11713;48.506;8.966;2023-04-06T04:33:12;14.33;;;9.33;;
23088;SDS011;11713;48.506;8.966;2023-04-06T04:35:39;13.37;;;8.80;;
23088;SDS011;11713;48.506;8.966;2023-04-06T04:38:06;13.87;;;9.20;;
23088;SDS011;11713;48.506;8.966;2023-04-06T04:40:36;16.03;;;10.07;;
23088;SDS011;11713;48.506;8.966;2023-04-06T04:43:06;21.10;;;12.23;;
23088;SDS011;11713;48.506;8.966;2023-04-06T04:45:33;18.93;;;11.53;;
23088;SDS011;11713;48.506;8.966;2023-04-06T04:48:08;17.13;;;11.13;;
23088;SDS011;11713;48.506;8.966;2023-04-06T04:50:46;18.50;;;12.67;;
23088;SDS011;11713;48.506;8.966;2023-04-06T04:53:14;18.40;;;11.87;;
23088;SDS011;11713;48.506;8.966;2023-04-06T04:55:41;15.07;;;10.23;;
23088;SDS011;11713;48.506;8.966;2023-04-06T04:58:09;17.23;;;11.10;;
23088;SDS011;11713;48.506;8.966;2023-04-06T05:00:48;20.77;;;12.20;;
23088;SDS011;11713;48.506;8.966;2023-04-06T05:03:23;25.97;;;14.40;;
23088;SDS011;11713;48.506;8.966;2023-04-06T05:06:04;20.90;;;12.97;;
23088;SDS011;11713;48.506;8.966;2023-04-06T05:08:33;17.23;;;11.20;;
23088;SDS011;11713;48.506;8.966;2023-04-06T05:11:00;16.73;;;11.00;;
23088;SDS011;11713;48.506;8.966;2023-04-06T05:13:29;12.63;;;9.00;;
23088;SDS011;11713;48.506;8.966;2023-04-06T05:15:57;10.40;;;8.20;;
23088;SDS011;11713;48.506;8.966;2023-04-06T05:18:26;14.93;;;8.50;;
23088;SDS011;11713;48.506;8.966;2023-04-06T05:20:53;11.77;;;8.40;;
23088;SDS011;11713;48.506;8.966;2023-04-06T05:23:26;14.20;;;8.00;;
23088;SDS011;11713;48.506;8.966;2023-04-06T05:25:51;10.47;;;7.83;;
23088;SDS011;11713;48.506;8.966;2023-04-06T05:28:21;12.13;;;8.17;;
23088;SDS011;11713;48.506;8.966;2023-04-06T05:30:47;10.93;;;7.67;;
23088;SDS011;11713;48.506;8.966;2023-04-06T05:33:14;10.97;;;7.33;;
23088;SDS011;11713;48.506;8.966;2023-04-06T05:35:55;12.83;;;8.30;;
23088;SDS011;11713;48.506;8.966;2023-04-06T05:38:21;11.87;;;7.90;;
23088;SDS011;11713;48.506;8.966;2023-04-06T05:40:48;10.70;;;7.80;;
23088;SDS011;11713;48.506;8.966;2023-04-06T05:43:17;15.67;;;8.80;;
23088;SDS011;11713;48.506;8.966;2023-04-06T05:45:49;15.40;;;8.60;;
23088;SDS011;11713;48.506;8.966;2023-04-06T05:48:15;13.13;;;9.20;;
23088;SDS011;11713;48.506;8.966;2023-04-06T05:50:41;12.93;;;9.03;;
23088;SDS011;11713;48.506;8.966;2023-04-06T05:53:09;16.13;;;12.13;;
23088;SDS011;11713;48.506;8.966;2023-04-06T05:55:39;68.50;;;43.47;;
23088;SDS011;11713;48.506;8.966;2023-04-06T05:58:10;17.23;;;12.43;;
23088;SDS011;11713;48.506;8.966;2023-04-06T06:00:36;11.43;;;9.00;;
23088;SDS011;11713;48.506;8.966;2023-04-06T06:03:05;11.33;;;8.57;;
23088;SDS011;11713;48.506;8.966;2023-04-06T06:05:32;12.30;;;9.43;;
23088;SDS011;11713;48.506;8.966;2023-04-06T06:08:06;12.57;;;8.80;;
23088;SDS011;11713;48.506;8.966;2023-04-06T06:10:33;12.70;;;9.60;;
23088;SDS011;11713;48.506;8.966;2023-04-06T06:12:59;13.13;;;9.93;;
23088;SDS011;11713;48.506;8.966;2023-04-06T06:15:26;16.10;;;11.10;;
23088;SDS011;11713;48.506;8.966;2023-04-06T06:17:51;15.67;;;11.60;;
23088;SDS011;11713;48.506;8.966;2023-04-06T06:20:17;12.00;;;8.93;;
23088;SDS011;11713;48.506;8.966;2023-04-06T06:22:43;10.60;;;8.90;;
23088;SDS011;11713;48.506;8.966;2023-04-06T06:25:14;14.33;;;10.60;;
23088;SDS011;11713;48.506;8.966;2023-04-06T06:27:41;12.27;;;9.17;;
23088;SDS011;11713;48.506;8.966;2023-04-06T06:30:08;13.67;;;9.60;;
23088;SDS011;11713;48.506;8.966;2023-04-06T06:32:38;12.33;;;9.37;;
23088;SDS011;11713;48.506;8.966;2023-04-06T06:35:04;12.07;;;8.90;;
23088;SDS011;11713;48.506;8.966;2023-04-06T06:37:31;11.13;;;9.03;;
23088;SDS011;11713;48.506;8.966;2023-04-06T06:39:59;13.37;;;8.77;;
23088;SDS011;11713;48.506;8.966;2023-04-06T06:42:25;13.53;;;10.10;;
23088;SDS011;11713;48.506;8.966;2023-04-06T06:45:17;13.63;;;9.20;;
23088;SDS011;11713;48.506;8.966;2023-04-06T06:47:44;11.50;;;8.63;;
23088;SDS011;11713;48.506;8.966;2023-04-06T06:50:10;10.60;;;8.30;;
23088;SDS011;11713;48.506;8.966;2023-04-06T06:52:36;13.13;;;9.23;;
23088;SDS011;11713;48.506;8.966;2023-04-06T06:55:02;11.20;;;8.73;;
23088;SDS011;11713;48.506;8.966;2023-04-06T06:57:28;18.57;;;10.47;;
23088;SDS011;11713;48.506;8.966;2023-04-06T06:59:54;13.87;;;9.33;;
23088;SDS011;11713;48.506;8.966;2023-04-06T07:02:20;13.53;;;9.87;;
23088;SDS011;11713;48.506;8.966;2023-04-06T07:04:49;11.80;;;8.80;;
23088;SDS011;11713;48.506;8.966;2023-04-06T07:07:16;14.87;;;10.50;;
23088;SDS011;11713;48.506;8.966;2023-04-06T07:09:42;10.50;;;8.53;;
23088;SDS011;11713;48.506;8.966;2023-04-06T07:12:07;10.50;;;9.13;;
23088;SDS011;11713;48.506;8.966;2023-04-06T07:14:33;12.70;;;9.67;;
23088;SDS011;11713;48.506;8.966;2023-04-06T07:17:00;10.87;;;8.83;;
23088;SDS011;11713;48.506;8.966;2023-04-06T07:19:27;12.10;;;9.17;;
23088;SDS011;11713;48.506;8.966;2023-04-06T07:21:56;13.60;;;8.53;;
23088;SDS011;11713;48.506;8.966;2023-04-06T07:24:22;11.97;;;8.73;;
23088;SDS011;11713;48.506;8.966;2023-04-06T07:26:48;12.20;;;9.27;;
23088;SDS011;11713;48.506;8.966;2023-04-06T07:29:14;13.77;;;9.70;;
23088;SDS011;11713;48.506;8.966;2023-04-06T07:31:40;14.20;;;9.90;;
23088;SDS011;11713;48.506;8.966;2023-04-06T07:34:07;11.80;;;9.07;;
23088;SDS011;11713;48.506;8.966;2023-04-06T07:36:34;13.83;;;9.47;;
23088;SDS011;11713;48.506;8.966;2023-04-06T07:39:00;11.63;;;8.87;;
23088;SDS011;11713;48.506;8.966;2023-04-06T07:41:26;11.23;;;9.43;;
23088;SDS011;11713;48.506;8.966;2023-04-06T07:43:52;13.77;;;9.60;;
23088;SDS011;11713;48.506;8.966;2023-04-06T07:46:18;11.30;;;9.50;;
23088;SDS011;11713;48.506;8.966;2023-04-06T07:48:44;11.97;;;9.03;;
23088;SDS011;11713;48.506;8.966;2023-04-06T07:51:10;11.33;;;8.53;;
23088;SDS011;11713;48.506;8.966;2023-04-06T07:53:40;12.50;;;9.07;;
23088;SDS011;11713;48.506;8.966;2023-04-06T07:56:06;12.37;;;10.10;;
23088;SDS011;11713;48.506;8.966;2023-04-06T07:58:31;11.93;;;9.60;;
23088;SDS011;11713;48.506;8.966;2023-04-06T08:00:57;11.53;;;9.60;;
23088;SDS011;11713;48.506;8.966;2023-04-06T08:03:23;12.17;;;9.20;;
23088;SDS011;11713;48.506;8.966;2023-04-06T08:05:51;11.93;;;9.10;;
23088;SDS011;11713;48.506;8.966;2023-04-06T08:08:17;11.70;;;9.03;;
23088;SDS011;11713;48.506;8.966;2023-04-06T08:10:46;11.80;;;9.17;;
23088;SDS011;11713;48.506;8.966;2023-04-06T08:13:13;12.07;;;9.60;;
23088;SDS011;11713;48.506;8.966;2023-04-06T08:15:39;13.97;;;9.20;;
23088;SDS011;11713;48.506;8.966;2023-04-06T08:18:05;12.13;;;9.03;;
23088;SDS011;11713;48.506;8.966;2023-04-06T08:20:31;11.53;;;9.33;;
23088;SDS011;11713;48.506;8.966;2023-04-06T08:22:56;12.77;;;8.80;;
23088;SDS011;11713;48.506;8.966;2023-04-06T08:25:22;13.67;;;9.50;;
23088;SDS011;11713;48.506;8.966;2023-04-06T08:27:48;10.60;;;8.53;;
23088;SDS011;11713;48.506;8.966;2023-04-06T08:30:14;15.33;;;10.57;;
23088;SDS011;11713;48.506;8.966;2023-04-06T08:32:41;12.97;;;9.27;;
23088;SDS011;11713;48.506;8.966;2023-04-06T08:35:07;10.07;;;8.83;;
23088;SDS011;11713;48.506;8.966;2023-04-06T08:37:33;11.60;;;8.83;;
23088;SDS011;11713;48.506;8.966;2023-04-06T08:39:59;12.97;;;8.67;;
23088;SDS011;11713;48.506;8.966;2023-04-06T08:42:25;10.93;;;8.70;;
23088;SDS011;11713;48.506;8.966;2023-04-06T08:44:55;9.17;;;7.97;;
23088;SDS011;11713;48.506;8.966;2023-04-06T08:47:21;10.10;;;8.27;;
23088;SDS011;11713;48.506;8.966;2023-04-06T08:49:48;9.63;;;8.33;;
23088;SDS011;11713;48.506;8.966;2023-04-06T08:52:16;10.63;;;8.20;;
23088;SDS011;11713;48.506;8.966;2023-04-06T08:54:44;10.27;;;7.93;;
23088;SDS011;11713;48.506;8.966;2023-04-06T08:57:12;10.00;;;7.33;;
23088;SDS011;11713;48.506;8.966;2023-04-06T08:59:41;10.50;;;7.97;;
23088;SDS011;11713;48.506;8.966;2023-04-06T09:02:07;10.33;;;7.47;;
23088;SDS011;11713;48.506;8.966;2023-04-06T09:04:43;8.83;;;7.67;;
23088;SDS011;11713;48.506;8.966;2023-04-06T09:07:13;8.23;;;7.43;;
23088;SDS011;11713;48.506;8.966;2023-04-06T09:09:40;9.57;;;7.97;;
23088;SDS011;11713;48.506;8.966;2023-04-06T09:12:28;10.07;;;8.47;;
23088;SDS011;11713;48.506;8.966;2023-04-06T09:14:56;8.50;;;7.60;;
23088;SDS011;11713;48.506;8.966;2023-04-06T09:17:23;10.33;;;8.40;;
23088;SDS011;11713;48.506;8.966;2023-04-06T09:19:50;11.43;;;8.70;;
23088;SDS011;11713;48.506;8.966;2023-04-06T09:22:16;10.13;;;7.87;;
23088;SDS011;11713;48.506;8.966;2023-04-06T09:24:43;9.13;;;7.43;;
23088;SDS011;11713;48.506;8.966;2023-04-06T09:27:11;10.13;;;7.53;;
23088;SDS011;11713;48.506;8.966;2023-04-06T09:29:37;9.87;;;7.53;;
23088;SDS011;11713;48.506;8.966;2023-04-06T09:32:04;9.80;;;7.30;;
23088;SDS011;11713;48.506;8.966;2023-04-06T09:34:31;9.60;;;7.20;;
23088;SDS011;11713;48.506;8.966;2023-04-06T09:36:59;8.73;;;7.60;;
23088;SDS011;11713;48.506;8.966;2023-04-06T09:39:25;11.10;;;7.87;;
23088;SDS011;11713;48.506;8.966;2023-04-06T09:41:52;9.47;;;7.77;;
23088;SDS011;11713;48.506;8.966;2023-04-06T09:44:19;10.20;;;8.07;;
23088;SDS011;11713;48.506;8.966;2023-04-06T09:46:47;10.77;;;7.93;;
23088;SDS011;11713;48.506;8.966;2023-04-06T09:49:13;10.07;;;7.70;;
23088;SDS011;11713;48.506;8.966;2023-04-06T09:51:41;12.47;;;8.57;;
23088;SDS011;11713;48.506;8.966;2023-04-06T09:54:21;10.43;;;8.13;;
23088;SDS011;11713;48.506;8.966;2023-04-06T09:57:31;8.80;;;7.40;;
23088;SDS011;11713;48.506;8.966;2023-04-06T10:06:13;7.37;;;6.53;;
23088;SDS011;11713;48.506;8.966;2023-04-06T10:09:20;8.10;;;5.87;;
23088;SDS011;11713;48.506;8.966;2023-04-06T10:11:50;9.77;;;6.57;;
23088;SDS011;11713;48.506;8.966;2023-04-06T10:14:16;7.33;;;6.03;;
23088;SDS011;11713;48.506;8.966;2023-04-06T10:16:42;11.87;;;6.87;;
23088;SDS011;11713;48.506;8.966;2023-04-06T10:19:17;8.83;;;6.30;;
23088;SDS011;11713;48.506;8.966;2023-04-06T10:21:50;8.03;;;6.30;;
23088;SDS011;11713;48.506;8.966;2023-04-06T10:24:20;7.37;;;5.40;;
23088;SDS011;11713;48.506;8.966;2023-04-06T10:26:58;8.57;;;6.30;;
23088;SDS011;11713;48.506;8.966;2023-04-06T10:29:27;8.03;;;5.03;;
23088;SDS011;11713;48.506;8.966;2023-04-06T10:31:53;7.03;;;5.30;;
23088;SDS011;11713;48.506;8.966;2023-04-06T10:34:20;6.90;;;5.03;;
23088;SDS011;11713;48.506;8.966;2023-04-06T10:36:46;7.73;;;6.23;;
23088;SDS011;11713;48.506;8.966;2023-04-06T10:39:12;7.50;;;6.03;;
23088;SDS011;11713;48.506;8.966;2023-04-06T10:41:45;6.40;;;5.80;;
23088;SDS011;11713;48.506;8.966;2023-04-06T10:44:23;7.43;;;5.90;;
23088;SDS011;11713;48.506;8.966;2023-04-06T10:46:53;8.60;;;5.60;;
23088;SDS011;11713;48.506;8.966;2023-04-06T10:49:25;7.10;;;5.10;;
23088;SDS011;11713;48.506;8.966;2023-04-06T10:51:52;8.93;;;5.83;;
23088;SDS011;11713;48.506;8.966;2023-04-06T10:54:21;8.67;;;6.30;;
23088;SDS011;11713;48.506;8.966;2023-04-06T10:56:48;8.00;;;6.10;;
23088;SDS011;11713;48.506;8.966;2023-04-06T10:59:18;9.90;;;6.70;;
23088;SDS011;11713;48.506;8.966;2023-04-06T11:01:47;8.10;;;5.77;;
23088;SDS011;11713;48.506;8.966;2023-04-06T11:04:17;6.13;;;5.23;;
23088;SDS011;11713;48.506;8.966;2023-04-06T11:06:47;7.03;;;5.07;;
23088;SDS011;11713;48.506;8.966;2023-04-06T11:09:26;5.47;;;4.93;;
23088;SDS011;11713;48.506;8.966;2023-04-06T11:11:53;6.17;;;4.90;;
23088;SDS011;11713;48.506;8.966;2023-04-06T11:14:21;6.97;;;5.00;;
23088;SDS011;11713;48.506;8.966;2023-04-06T11:16:47;6.70;;;5.33;;
23088;SDS011;11713;48.506;8.966;2023-04-06T11:19:15;7.70;;;4.80;;
23088;SDS011;11713;48.506;8.966;2023-04-06T11:21:42;5.57;;;4.20;;
23088;SDS011;11713;48.506;8.966;2023-04-06T11:24:20;5.27;;;4.53;;
23088;SDS011;11713;48.506;8.966;2023-04-06T11:26:57;5.47;;;4.60;;
23088;SDS011;11713;48.506;8.966;2023-04-06T11:29:26;5.07;;;4.57;;
23088;SDS011;11713;48.506;8.966;2023-04-06T11:32:03;5.33;;;4.77;;
23088;SDS011;11713;48.506;8.966;2023-04-06T11:34:33;5.33;;;4.70;;
23088;SDS011;11713;48.506;8.966;2023-04-06T11:37:07;7.10;;;5.53;;
23088;SDS011;11713;48.506;8.966;2023-04-06T11:39:38;6.80;;;5.80;;
23088;SDS011;11713;48.506;8.966;2023-04-06T11:42:05;8.57;;;5.50;;
23088;SDS011;11713;48.506;8.966;2023-04-06T11:46:58;8.33;;;6.27;;
23088;SDS011;11713;48.506;8.966;2023-04-06T11:49:30;9.33;;;6.17;;
23088;SDS011;11713;48.506;8.966;2023-04-06T11:51:57;7.00;;;5.60;;
23088;SDS011;11713;48.506;8.966;2023-04-06T11:58:29;7.47;;;5.43;;
23088;SDS011;11713;48.506;8.966;2023-04-06T12:12:54;4.90;;;4.40;;
23088;SDS011;11713;48.506;8.966;2023-04-06T12:15:20;4.70;;;4.23;;
23088;SDS011;11713;48.506;8.966;2023-04-06T12:17:46;4.60;;;3.63;;
23088;SDS011;11713;48.506;8.966;2023-04-06T12:20:11;4.17;;;3.33;;
23088;SDS011;11713;48.506;8.966;2023-04-06T12:22:38;4.33;;;3.63;;
23088;SDS011;11713;48.506;8.966;2023-04-06T12:25:05;4.80;;;3.67;;
23088;SDS011;11713;48.506;8.966;2023-04-06T12:27:32;4.63;;;3.90;;
23088;SDS011;11713;48.506;8.966;2023-04-06T12:29:58;5.27;;;4.00;;
23088;SDS011;11713;48.506;8.966;2023-04-06T12:32:24;4.73;;;4.23;;
23088;SDS011;11713;48.506;8.966;2023-04-06T12:34:53;5.00;;;4.20;;
23088;SDS011;11713;48.506;8.966;2023-04-06T12:37:19;4.73;;;4.10;;
23088;SDS011;11713;48.506;8.966;2023-04-06T12:39:45;4.10;;;3.70;;
23088;SDS011;11713;48.506;8.966;2023-04-06T12:42:53;4.97;;;4.03;;
23088;SDS011;11713;48.506;8.966;2023-04-06T12:45:24;4.77;;;4.30;;
23088;SDS011;11713;48.506;8.966;2023-04-06T12:47:59;5.77;;;4.97;;
23088;SDS011;11713;48.506;8.966;2023-04-06T12:50:25;5.43;;;4.20;;
23088;SDS011;11713;48.506;8.966;2023-04-06T12:52:51;5.17;;;4.67;;
23088;SDS011;11713;48.506;8.966;2023-04-06T12:55:17;5.27;;;4.10;;
23088;SDS011;11713;48.506;8.966;2023-04-06T12:57:44;5.13;;;4.63;;
23088;SDS011;11713;48.506;8.966;2023-04-06T13:00:10;4.60;;;4.10;;
23088;SDS011;11713;48.506;8.966;2023-04-06T13:02:37;6.00;;;4.10;;
23088;SDS011;11713;48.506;8.966;2023-04-06T13:05:03;5.27;;;4.40;;
23088;SDS011;11713;48.506;8.966;2023-04-06T13:07:30;5.03;;;4.30;;
23088;SDS011;11713;48.506;8.966;2023-04-06T13:09:55;5.33;;;4.80;;
23088;SDS011;11713;48.506;8.966;2023-04-06T13:12:21;6.23;;;4.27;;
23088;SDS011;11713;48.506;8.966;2023-04-06T13:14:47;5.83;;;4.63;;
23088;SDS011;11713;48.506;8.966;2023-04-06T13:17:16;6.00;;;4.20;;
23088;SDS011;11713;48.506;8.966;2023-04-06T13:19:42;5.57;;;4.97;;
23088;SDS011;11713;48.506;8.966;2023-04-06T13:22:08;5.47;;;4.07;;
23088;SDS011;11713;48.506;8.966;2023-04-06T13:24:34;7.53;;;5.13;;
23088;SDS011;11713;48.506;8.966;2023-04-06T13:27:00;6.87;;;5.17;;
23088;SDS011;11713;48.506;8.966;2023-04-06T13:29:26;5.97;;;4.60;;
23088;SDS011;11713;48.506;8.966;2023-04-06T13:31:52;6.13;;;4.53;;
23088;SDS011;11713;48.506;8.966;2023-04-06T13:34:18;5.97;;;4.93;;
23088;SDS011;11713;48.506;8.966;2023-04-06T13:40:40;5.37;;;4.50;;
23088;SDS011;11713;48.506;8.966;2023-04-06T13:43:06;8.33;;;4.60;;
23088;SDS011;11713;48.506;8.966;2023-04-06T13:45:32;6.13;;;4.70;;
23088;SDS011;11713;48.506;8.966;2023-04-06T13:47:58;6.90;;;4.90;;
23088;SDS011;11713;48.506;8.966;2023-04-06T13:50:28;4.90;;;4.40;;
23088;SDS011;11713;48.506;8.966;2023-04-06T13:52:54;6.30;;;4.70;;
23088;SDS011;11713;48.506;8.966;2023-04-06T13:55:22;5.57;;;4.50;;
23088;SDS011;11713;48.506;8.966;2023-04-06T13:57:51;6.90;;;4.87;;
23088;SDS011;11713;48.506;8.966;2023-04-06T14:00:17;6.20;;;5.00;;
23088;SDS011;11713;48.506;8.966;2023-04-06T14:02:44;5.47;;;4.60;;
23088;SDS011;11713;48.506;8.966;2023-04-06T14:05:10;6.47;;;4.47;;
23088;SDS011;11713;48.506;8.966;2023-04-06T14:07:36;5.70;;;4.80;;
23088;SDS011;11713;48.506;8.966;2023-04-06T14:10:03;5.57;;;4.63;;
23088;SDS011;11713;48.506;8.966;2023-04-06T14:12:29;5.70;;;4.67;;
23088;SDS011;11713;48.506;8.966;2023-04-06T14:14:56;5.63;;;5.00;;
23088;SDS011;11713;48.506;8.966;2023-04-06T14:17:22;6.50;;;5.20;;
23088;SDS011;11713;48.506;8.966;2023-04-06T14:19:48;5.80;;;4.67;;
23088;SDS011;11713;48.506;8.966;2023-04-06T14:22:14;7.47;;;4.83;;
23088;SDS011;11713;48.506;8.966;2023-04-06T14:24:40;6.83;;;5.20;;
23088;SDS011;11713;48.506;8.966;2023-04-06T14:27:06;5.83;;;4.67;;
23088;SDS011;11713;48.506;8.966;2023-04-06T14:29:32;5.90;;;4.40;;
23088;SDS011;11713;48.506;8.966;2023-04-06T14:31:58;5.57;;;4.10;;
23088;SDS011;11713;48.506;8.966;2023-04-06T14:34:26;5.17;;;4.07;;
23088;SDS011;11713;48.506;8.966;2023-04-06T14:36:52;4.88;;;4.20;;
23088;SDS011;11713;48.506;8.966;2023-04-06T14:39:18;5.17;;;4.13;;
23088;SDS011;11713;48.506;8.966;2023-04-06T14:41:44;7.83;;;4.77;;
23088;SDS011;11713;48.506;8.966;2023-04-06T14:44:12;5.70;;;4.47;;
23088;SDS011;11713;48.506;8.966;2023-04-06T14:46:42;4.73;;;3.93;;
23088;SDS011;11713;48.506;8.966;2023-04-06T14:49:08;6.37;;;4.60;;
23088;SDS011;11713;48.506;8.966;2023-04-06T14:51:34;6.73;;;5.17;;
23088;SDS011;11713;48.506;8.966;2023-04-06T14:54:00;6.27;;;4.47;;
23088;SDS011;11713;48.506;8.966;2023-04-06T14:56:30;5.37;;;4.13;;
23088;SDS011;11713;48.506;8.966;2023-04-06T14:58:59;5.93;;;4.50;;
23088;SDS011;11713;48.506;8.966;2023-04-06T15:01:45;5.00;;;4.50;;
23088;SDS011;11713;48.506;8.966;2023-04-06T15:04:12;5.37;;;4.27;;
23088;SDS011;11713;48.506;8.966;2023-04-06T15:08:16;4.37;;;3.77;;
23088;SDS011;11713;48.506;8.966;2023-04-06T15:10:46;6.07;;;4.30;;
23088;SDS011;11713;48.506;8.966;2023-04-06T15:13:12;5.93;;;4.47;;
23088;SDS011;11713;48.506;8.966;2023-04-06T15:15:38;6.80;;;4.70;;
23088;SDS011;11713;48.506;8.966;2023-04-06T15:18:05;5.57;;;4.47;;